Aeroporto :
LOGIN :

Iscrizione | Disclaimer

   EN    FR    IT 

 










Sommario :    VFR   VFR Marginale   IFR   IFR Intensivo   IFR Molto Intensivo
Visibilità : 
Base nubi : 
>= 8 km
>= 3000ft
5 / 8 km
1000 / 3000 ft
1500m / 5 km
500 / 1000 ft
800 / 1500m
200 / 500 ft
< 800m
< 200 ft
Simboli :   Temporali  Nebbia  Neve Forte  Precipitazioni Forti  Vento > 20 kt
SIGMETs :   Varie  Temporali  Ghiacco  Turbolenza  Onda orograficha  Ceneri Vulcaniche







- Altitudine del aeroporto : 580 ft
- Carte del aeroporto


LFOA - Avord

ULTIMO METAR :
  • 212330Z AUTO 07005KT CAVOK 06/00 Q1029

METARs OBSOLETI :
  • 212300Z AUTO 13003KT CAVOK 05/00 Q1029
  • 212230Z AUTO 09003KT CAVOK 06/00 Q1029 NOSIG
  • 212200Z AUTO 10005KT CAVOK 07/00 Q1029 NOSIG
  • 212130Z AUTO 06008KT CAVOK 08/01 Q1029 NOSIG
  • 212100Z AUTO 08004KT CAVOK 08/00 Q1029 NOSIG

TAF TAF LFOA
Valido dal 21 a 21 ore il 22 a 21 ore UTC


212000Z 2121/2221 05008KT CAVOK
PROB30
TEMPO 2203/2207 0800 BCFG
Nessun NOTAM noto per questo aeroporto.



MetMap, La meteo Aeronautica in un colpo d'occhio ! - Copyright ORBIFLY Dicembre 2007 - Disclaimer

ORBIFLY MET'MAP TEAM :

Programmazione e sviluppo : Alexandra Zaïnal
Concezione e sviluppo : Baudouin d'Aumeries
Co-Programmazione e sviluppo : Marc-Olivier Méhu
Supporto tecnico e logistico : Manuel Goepfert
Aiuto per la traduzione : Arnaldo La Scala

Contatto : metmap@orbifly.com




FONTI E CREDITI :

   NOAA